sensor_id;sensor_type;location;lat;lon;timestamp;P1;durP1;ratioP1;P2;durP2;ratioP2
71298;SDS011;59083;47.974;21.722;2022-07-05T00:01:57;8.15;;;3.80;;
71298;SDS011;59083;47.974;21.722;2022-07-05T00:04:58;8.13;;;3.93;;
71298;SDS011;59083;47.974;21.722;2022-07-05T00:08:00;7.12;;;4.00;;
71298;SDS011;59083;47.974;21.722;2022-07-05T00:11:02;6.82;;;3.87;;
71298;SDS011;59083;47.974;21.722;2022-07-05T00:14:03;8.45;;;4.07;;
71298;SDS011;59083;47.974;21.722;2022-07-05T00:17:05;8.00;;;4.18;;
71298;SDS011;59083;47.974;21.722;2022-07-05T00:20:06;7.60;;;4.03;;
71298;SDS011;59083;47.974;21.722;2022-07-05T00:23:08;7.60;;;3.72;;
71298;SDS011;59083;47.974;21.722;2022-07-05T00:26:09;7.30;;;3.90;;
71298;SDS011;59083;47.974;21.722;2022-07-05T00:29:10;11.15;;;3.92;;
71298;SDS011;59083;47.974;21.722;2022-07-05T00:32:12;7.55;;;3.97;;
71298;SDS011;59083;47.974;21.722;2022-07-05T00:35:13;8.67;;;4.40;;
71298;SDS011;59083;47.974;21.722;2022-07-05T00:38:14;6.97;;;3.95;;
71298;SDS011;59083;47.974;21.722;2022-07-05T00:41:16;8.43;;;4.32;;
71298;SDS011;59083;47.974;21.722;2022-07-05T00:44:26;7.82;;;3.95;;
71298;SDS011;59083;47.974;21.722;2022-07-05T00:47:31;8.35;;;4.50;;
71298;SDS011;59083;47.974;21.722;2022-07-05T00:50:32;9.60;;;4.10;;
71298;SDS011;59083;47.974;21.722;2022-07-05T00:53:34;8.23;;;3.83;;
71298;SDS011;59083;47.974;21.722;2022-07-05T00:56:35;6.50;;;3.90;;
71298;SDS011;59083;47.974;21.722;2022-07-05T00:59:37;6.62;;;4.10;;
71298;SDS011;59083;47.974;21.722;2022-07-05T01:02:38;7.80;;;4.28;;
71298;SDS011;59083;47.974;21.722;2022-07-05T01:05:39;7.40;;;3.87;;
71298;SDS011;59083;47.974;21.722;2022-07-05T01:08:41;7.85;;;4.18;;
71298;SDS011;59083;47.974;21.722;2022-07-05T01:11:44;8.32;;;3.92;;
71298;SDS011;59083;47.974;21.722;2022-07-05T01:14:47;8.95;;;3.95;;
71298;SDS011;59083;47.974;21.722;2022-07-05T01:17:49;7.25;;;4.15;;
71298;SDS011;59083;47.974;21.722;2022-07-05T01:20:51;8.00;;;4.30;;
71298;SDS011;59083;47.974;21.722;2022-07-05T01:23:53;7.45;;;4.00;;
71298;SDS011;59083;47.974;21.722;2022-07-05T01:26:54;7.22;;;4.40;;
71298;SDS011;59083;47.974;21.722;2022-07-05T01:29:56;10.10;;;4.10;;
71298;SDS011;59083;47.974;21.722;2022-07-05T01:32:57;8.52;;;3.92;;
71298;SDS011;59083;47.974;21.722;2022-07-05T01:35:59;7.40;;;4.30;;
71298;SDS011;59083;47.974;21.722;2022-07-05T01:39:01;7.75;;;4.28;;
71298;SDS011;59083;47.974;21.722;2022-07-05T01:42:04;10.57;;;4.30;;
71298;SDS011;59083;47.974;21.722;2022-07-05T01:45:06;10.50;;;4.53;;
71298;SDS011;59083;47.974;21.722;2022-07-05T01:48:09;8.00;;;4.35;;
71298;SDS011;59083;47.974;21.722;2022-07-05T01:51:20;6.87;;;4.17;;
71298;SDS011;59083;47.974;21.722;2022-07-05T01:54:27;7.47;;;4.32;;
71298;SDS011;59083;47.974;21.722;2022-07-05T01:57:29;8.00;;;4.03;;
71298;SDS011;59083;47.974;21.722;2022-07-05T02:00:30;7.18;;;3.95;;
71298;SDS011;59083;47.974;21.722;2022-07-05T02:03:32;7.50;;;4.22;;
71298;SDS011;59083;47.974;21.722;2022-07-05T02:06:33;7.97;;;3.97;;
71298;SDS011;59083;47.974;21.722;2022-07-05T02:09:35;8.32;;;4.10;;
71298;SDS011;59083;47.974;21.722;2022-07-05T02:12:37;7.37;;;4.53;;
71298;SDS011;59083;47.974;21.722;2022-07-05T02:15:39;7.18;;;4.15;;
71298;SDS011;59083;47.974;21.722;2022-07-05T02:18:42;7.97;;;4.40;;
71298;SDS011;59083;47.974;21.722;2022-07-05T02:21:43;7.63;;;4.57;;
71298;SDS011;59083;47.974;21.722;2022-07-05T02:24:45;9.43;;;4.70;;
71298;SDS011;59083;47.974;21.722;2022-07-05T02:27:47;6.95;;;4.12;;
71298;SDS011;59083;47.974;21.722;2022-07-05T02:30:49;8.38;;;4.57;;
71298;SDS011;59083;47.974;21.722;2022-07-05T02:33:50;7.90;;;4.40;;
71298;SDS011;59083;47.974;21.722;2022-07-05T02:36:54;7.87;;;4.63;;
71298;SDS011;59083;47.974;21.722;2022-07-05T02:39:55;8.10;;;4.50;;
71298;SDS011;59083;47.974;21.722;2022-07-05T02:42:57;10.02;;;4.25;;
71298;SDS011;59083;47.974;21.722;2022-07-05T02:45:59;11.43;;;4.20;;
71298;SDS011;59083;47.974;21.722;2022-07-05T02:49:04;8.30;;;4.40;;
71298;SDS011;59083;47.974;21.722;2022-07-05T02:52:06;7.87;;;4.30;;
71298;SDS011;59083;47.974;21.722;2022-07-05T02:55:08;8.30;;;4.45;;
71298;SDS011;59083;47.974;21.722;2022-07-05T02:58:10;7.30;;;4.25;;
71298;SDS011;59083;47.974;21.722;2022-07-05T03:01:11;7.35;;;4.22;;
71298;SDS011;59083;47.974;21.722;2022-07-05T03:04:13;7.07;;;4.40;;
71298;SDS011;59083;47.974;21.722;2022-07-05T03:07:15;8.37;;;4.50;;
71298;SDS011;59083;47.974;21.722;2022-07-05T03:10:17;9.60;;;4.55;;
71298;SDS011;59083;47.974;21.722;2022-07-05T03:13:19;9.18;;;4.80;;
71298;SDS011;59083;47.974;21.722;2022-07-05T03:16:20;9.95;;;4.62;;
71298;SDS011;59083;47.974;21.722;2022-07-05T03:19:24;8.10;;;4.72;;
71298;SDS011;59083;47.974;21.722;2022-07-05T03:22:26;8.00;;;4.70;;
71298;SDS011;59083;47.974;21.722;2022-07-05T03:25:28;8.40;;;4.20;;
71298;SDS011;59083;47.974;21.722;2022-07-05T03:28:29;7.32;;;4.32;;
71298;SDS011;59083;47.974;21.722;2022-07-05T03:31:31;7.65;;;4.57;;
71298;SDS011;59083;47.974;21.722;2022-07-05T03:34:33;9.30;;;4.47;;
71298;SDS011;59083;47.974;21.722;2022-07-05T03:37:35;7.93;;;4.80;;
71298;SDS011;59083;47.974;21.722;2022-07-05T03:40:37;9.68;;;4.60;;
71298;SDS011;59083;47.974;21.722;2022-07-05T03:43:39;8.45;;;4.40;;
71298;SDS011;59083;47.974;21.722;2022-07-05T03:46:40;8.07;;;4.50;;
71298;SDS011;59083;47.974;21.722;2022-07-05T03:49:42;8.82;;;4.82;;
71298;SDS011;59083;47.974;21.722;2022-07-05T03:52:43;8.70;;;4.90;;
71298;SDS011;59083;47.974;21.722;2022-07-05T03:55:45;8.63;;;4.47;;
71298;SDS011;59083;47.974;21.722;2022-07-05T03:58:47;9.00;;;4.62;;
71298;SDS011;59083;47.974;21.722;2022-07-05T04:01:49;8.90;;;4.28;;
71298;SDS011;59083;47.974;21.722;2022-07-05T04:04:51;9.25;;;4.75;;
71298;SDS011;59083;47.974;21.722;2022-07-05T04:07:54;7.63;;;4.53;;
71298;SDS011;59083;47.974;21.722;2022-07-05T04:10:56;9.68;;;4.68;;
71298;SDS011;59083;47.974;21.722;2022-07-05T04:13:58;9.10;;;4.78;;
71298;SDS011;59083;47.974;21.722;2022-07-05T04:16:59;8.85;;;4.60;;
71298;SDS011;59083;47.974;21.722;2022-07-05T04:20:00;8.25;;;5.20;;
71298;SDS011;59083;47.974;21.722;2022-07-05T04:23:02;13.03;;;4.90;;
71298;SDS011;59083;47.974;21.722;2022-07-05T04:26:05;7.55;;;5.05;;
71298;SDS011;59083;47.974;21.722;2022-07-05T04:29:07;9.02;;;4.90;;
71298;SDS011;59083;47.974;21.722;2022-07-05T04:32:08;11.15;;;4.97;;
71298;SDS011;59083;47.974;21.722;2022-07-05T04:35:10;8.15;;;5.32;;
71298;SDS011;59083;47.974;21.722;2022-07-05T04:38:12;11.50;;;5.37;;
71298;SDS011;59083;47.974;21.722;2022-07-05T04:41:15;9.23;;;5.30;;
71298;SDS011;59083;47.974;21.722;2022-07-05T04:44:16;9.30;;;5.55;;
71298;SDS011;59083;47.974;21.722;2022-07-05T04:47:17;7.93;;;5.12;;
71298;SDS011;59083;47.974;21.722;2022-07-05T04:50:19;13.62;;;6.40;;
71298;SDS011;59083;47.974;21.722;2022-07-05T04:53:20;9.97;;;5.93;;
71298;SDS011;59083;47.974;21.722;2022-07-05T04:56:21;9.95;;;5.53;;
71298;SDS011;59083;47.974;21.722;2022-07-05T04:59:23;9.55;;;6.62;;
71298;SDS011;59083;47.974;21.722;2022-07-05T05:02:24;9.82;;;5.45;;
71298;SDS011;59083;47.974;21.722;2022-07-05T05:05:25;9.07;;;5.53;;
71298;SDS011;59083;47.974;21.722;2022-07-05T05:08:26;14.53;;;5.17;;
71298;SDS011;59083;47.974;21.722;2022-07-05T05:11:28;10.70;;;6.10;;
71298;SDS011;59083;47.974;21.722;2022-07-05T05:14:29;9.98;;;6.00;;
71298;SDS011;59083;47.974;21.722;2022-07-05T05:17:37;11.48;;;5.72;;
71298;SDS011;59083;47.974;21.722;2022-07-05T05:20:39;14.35;;;6.50;;
71298;SDS011;59083;47.974;21.722;2022-07-05T05:23:41;10.53;;;5.80;;
71298;SDS011;59083;47.974;21.722;2022-07-05T05:26:42;11.40;;;6.28;;
71298;SDS011;59083;47.974;21.722;2022-07-05T05:29:43;11.02;;;6.47;;
71298;SDS011;59083;47.974;21.722;2022-07-05T05:32:44;11.15;;;5.93;;
71298;SDS011;59083;47.974;21.722;2022-07-05T05:35:46;11.20;;;6.57;;
71298;SDS011;59083;47.974;21.722;2022-07-05T05:38:47;13.87;;;6.40;;
71298;SDS011;59083;47.974;21.722;2022-07-05T05:41:48;11.40;;;6.45;;
71298;SDS011;59083;47.974;21.722;2022-07-05T05:44:50;12.07;;;6.97;;
71298;SDS011;59083;47.974;21.722;2022-07-05T05:47:52;9.43;;;6.10;;
71298;SDS011;59083;47.974;21.722;2022-07-05T05:50:54;13.30;;;6.43;;
71298;SDS011;59083;47.974;21.722;2022-07-05T05:53:56;12.90;;;6.63;;
71298;SDS011;59083;47.974;21.722;2022-07-05T05:56:57;15.00;;;6.40;;
71298;SDS011;59083;47.974;21.722;2022-07-05T05:59:58;10.88;;;6.78;;
71298;SDS011;59083;47.974;21.722;2022-07-05T06:03:00;11.85;;;6.60;;
71298;SDS011;59083;47.974;21.722;2022-07-05T06:06:01;9.63;;;6.65;;
71298;SDS011;59083;47.974;21.722;2022-07-05T06:09:02;11.33;;;7.33;;
71298;SDS011;59083;47.974;21.722;2022-07-05T06:12:04;10.73;;;6.87;;
71298;SDS011;59083;47.974;21.722;2022-07-05T06:15:05;10.05;;;6.47;;
71298;SDS011;59083;47.974;21.722;2022-07-05T06:18:07;9.20;;;6.70;;
71298;SDS011;59083;47.974;21.722;2022-07-05T06:21:10;11.98;;;6.93;;
71298;SDS011;59083;47.974;21.722;2022-07-05T06:24:11;9.70;;;6.87;;
71298;SDS011;59083;47.974;21.722;2022-07-05T06:27:12;11.32;;;6.93;;
71298;SDS011;59083;47.974;21.722;2022-07-05T06:30:14;13.88;;;7.07;;
71298;SDS011;59083;47.974;21.722;2022-07-05T06:33:20;15.02;;;7.37;;
71298;SDS011;59083;47.974;21.722;2022-07-05T06:36:21;10.85;;;6.90;;
71298;SDS011;59083;47.974;21.722;2022-07-05T06:39:22;13.43;;;7.70;;
71298;SDS011;59083;47.974;21.722;2022-07-05T06:42:24;13.70;;;7.60;;
71298;SDS011;59083;47.974;21.722;2022-07-05T06:45:25;11.75;;;6.80;;
71298;SDS011;59083;47.974;21.722;2022-07-05T06:48:27;11.02;;;7.53;;
71298;SDS011;59083;47.974;21.722;2022-07-05T06:51:28;10.07;;;7.47;;
71298;SDS011;59083;47.974;21.722;2022-07-05T06:54:29;10.27;;;7.13;;
71298;SDS011;59083;47.974;21.722;2022-07-05T06:57:30;12.00;;;7.20;;
71298;SDS011;59083;47.974;21.722;2022-07-05T07:00:32;9.55;;;7.28;;
71298;SDS011;59083;47.974;21.722;2022-07-05T07:03:34;12.10;;;7.45;;
71298;SDS011;59083;47.974;21.722;2022-07-05T07:06:35;11.95;;;7.20;;
71298;SDS011;59083;47.974;21.722;2022-07-05T07:09:37;11.00;;;7.53;;
71298;SDS011;59083;47.974;21.722;2022-07-05T07:12:38;10.98;;;7.62;;
71298;SDS011;59083;47.974;21.722;2022-07-05T07:15:39;11.65;;;7.30;;
71298;SDS011;59083;47.974;21.722;2022-07-05T07:18:41;11.40;;;7.32;;
71298;SDS011;59083;47.974;21.722;2022-07-05T07:21:42;12.27;;;7.18;;
71298;SDS011;59083;47.974;21.722;2022-07-05T07:24:44;12.57;;;7.30;;
71298;SDS011;59083;47.974;21.722;2022-07-05T07:27:46;11.98;;;7.10;;
71298;SDS011;59083;47.974;21.722;2022-07-05T07:30:50;10.90;;;7.07;;
71298;SDS011;59083;47.974;21.722;2022-07-05T07:33:51;10.98;;;6.97;;
71298;SDS011;59083;47.974;21.722;2022-07-05T07:36:52;11.20;;;7.07;;
71298;SDS011;59083;47.974;21.722;2022-07-05T07:39:55;10.10;;;6.93;;
71298;SDS011;59083;47.974;21.722;2022-07-05T07:42:56;12.35;;;7.40;;
71298;SDS011;59083;47.974;21.722;2022-07-05T07:45:57;12.07;;;6.95;;
71298;SDS011;59083;47.974;21.722;2022-07-05T07:48:59;10.98;;;6.50;;
71298;SDS011;59083;47.974;21.722;2022-07-05T07:52:00;12.57;;;7.25;;
71298;SDS011;59083;47.974;21.722;2022-07-05T07:55:01;11.03;;;6.90;;
71298;SDS011;59083;47.974;21.722;2022-07-05T07:58:03;10.57;;;7.20;;
71298;SDS011;59083;47.974;21.722;2022-07-05T08:01:04;11.82;;;7.00;;
71298;SDS011;59083;47.974;21.722;2022-07-05T08:04:12;12.43;;;7.00;;
71298;SDS011;59083;47.974;21.722;2022-07-05T08:07:14;12.45;;;7.43;;
71298;SDS011;59083;47.974;21.722;2022-07-05T08:10:15;11.87;;;7.30;;
71298;SDS011;59083;47.974;21.722;2022-07-05T08:13:17;14.68;;;7.18;;
71298;SDS011;59083;47.974;21.722;2022-07-05T08:16:18;12.37;;;7.28;;
71298;SDS011;59083;47.974;21.722;2022-07-05T08:19:19;8.85;;;6.43;;
71298;SDS011;59083;47.974;21.722;2022-07-05T08:22:39;13.73;;;7.20;;
71298;SDS011;59083;47.974;21.722;2022-07-05T08:25:41;11.73;;;7.00;;
71298;SDS011;59083;47.974;21.722;2022-07-05T08:28:43;15.07;;;7.40;;
71298;SDS011;59083;47.974;21.722;2022-07-05T08:31:45;13.60;;;7.20;;
71298;SDS011;59083;47.974;21.722;2022-07-05T08:34:48;10.48;;;7.00;;
71298;SDS011;59083;47.974;21.722;2022-07-05T08:37:50;13.98;;;6.93;;
71298;SDS011;59083;47.974;21.722;2022-07-05T08:40:51;11.37;;;6.80;;
71298;SDS011;59083;47.974;21.722;2022-07-05T08:43:55;16.35;;;8.32;;
71298;SDS011;59083;47.974;21.722;2022-07-05T08:46:58;11.95;;;7.70;;
71298;SDS011;59083;47.974;21.722;2022-07-05T08:50:03;12.63;;;7.32;;
71298;SDS011;59083;47.974;21.722;2022-07-05T08:53:06;12.88;;;6.93;;
71298;SDS011;59083;47.974;21.722;2022-07-05T08:56:08;12.43;;;7.03;;
71298;SDS011;59083;47.974;21.722;2022-07-05T08:59:10;12.10;;;7.15;;
71298;SDS011;59083;47.974;21.722;2022-07-05T09:02:12;9.73;;;6.78;;
71298;SDS011;59083;47.974;21.722;2022-07-05T09:05:17;11.93;;;7.20;;
71298;SDS011;59083;47.974;21.722;2022-07-05T09:08:19;23.23;;;12.45;;
71298;SDS011;59083;47.974;21.722;2022-07-05T09:11:28;11.00;;;7.40;;
71298;SDS011;59083;47.974;21.722;2022-07-05T09:14:37;11.82;;;7.43;;
71298;SDS011;59083;47.974;21.722;2022-07-05T09:17:44;12.65;;;7.50;;
71298;SDS011;59083;47.974;21.722;2022-07-05T09:20:46;11.70;;;7.72;;
71298;SDS011;59083;47.974;21.722;2022-07-05T09:23:54;11.85;;;7.50;;
71298;SDS011;59083;47.974;21.722;2022-07-05T09:27:04;11.83;;;7.70;;
71298;SDS011;59083;47.974;21.722;2022-07-05T09:30:06;13.05;;;7.30;;
71298;SDS011;59083;47.974;21.722;2022-07-05T09:33:11;10.18;;;7.37;;
71298;SDS011;59083;47.974;21.722;2022-07-05T09:36:15;12.18;;;8.07;;
71298;SDS011;59083;47.974;21.722;2022-07-05T09:42:29;14.97;;;7.67;;
71298;SDS011;59083;47.974;21.722;2022-07-05T09:45:31;14.48;;;7.43;;
71298;SDS011;59083;47.974;21.722;2022-07-05T09:48:33;11.73;;;7.70;;
71298;SDS011;59083;47.974;21.722;2022-07-05T09:51:47;10.10;;;7.30;;
71298;SDS011;59083;47.974;21.722;2022-07-05T09:54:59;13.02;;;7.95;;
71298;SDS011;59083;47.974;21.722;2022-07-05T09:58:12;12.93;;;7.60;;
71298;SDS011;59083;47.974;21.722;2022-07-05T10:01:23;12.98;;;7.75;;
71298;SDS011;59083;47.974;21.722;2022-07-05T10:04:26;16.35;;;7.60;;
71298;SDS011;59083;47.974;21.722;2022-07-05T10:07:30;13.05;;;7.47;;
71298;SDS011;59083;47.974;21.722;2022-07-05T10:10:32;10.75;;;7.00;;
71298;SDS011;59083;47.974;21.722;2022-07-05T10:13:33;11.93;;;7.03;;
71298;SDS011;59083;47.974;21.722;2022-07-05T10:16:35;15.30;;;7.35;;
71298;SDS011;59083;47.974;21.722;2022-07-05T10:19:38;13.27;;;7.32;;
71298;SDS011;59083;47.974;21.722;2022-07-05T10:22:42;14.48;;;7.43;;
71298;SDS011;59083;47.974;21.722;2022-07-05T10:25:45;12.63;;;7.87;;
71298;SDS011;59083;47.974;21.722;2022-07-05T10:28:51;12.83;;;7.40;;
71298;SDS011;59083;47.974;21.722;2022-07-05T10:31:54;12.88;;;7.60;;
71298;SDS011;59083;47.974;21.722;2022-07-05T10:34:56;13.70;;;7.22;;
71298;SDS011;59083;47.974;21.722;2022-07-05T10:37:59;14.32;;;7.53;;
71298;SDS011;59083;47.974;21.722;2022-07-05T10:41:02;15.55;;;7.55;;
71298;SDS011;59083;47.974;21.722;2022-07-05T10:44:05;9.90;;;6.53;;
71298;SDS011;59083;47.974;21.722;2022-07-05T10:47:08;10.70;;;6.00;;
71298;SDS011;59083;47.974;21.722;2022-07-05T10:50:11;10.55;;;6.40;;
71298;SDS011;59083;47.974;21.722;2022-07-05T10:53:12;12.35;;;6.62;;
71298;SDS011;59083;47.974;21.722;2022-07-05T10:56:14;10.88;;;6.25;;
71298;SDS011;59083;47.974;21.722;2022-07-05T10:59:16;10.30;;;6.00;;
71298;SDS011;59083;47.974;21.722;2022-07-05T11:02:17;10.77;;;5.70;;
71298;SDS011;59083;47.974;21.722;2022-07-05T11:05:18;11.30;;;6.18;;
71298;SDS011;59083;47.974;21.722;2022-07-05T11:08:19;13.73;;;6.03;;
71298;SDS011;59083;47.974;21.722;2022-07-05T11:11:37;13.55;;;6.12;;
71298;SDS011;59083;47.974;21.722;2022-07-05T11:14:46;10.63;;;5.83;;
71298;SDS011;59083;47.974;21.722;2022-07-05T11:17:48;8.95;;;5.32;;
71298;SDS011;59083;47.974;21.722;2022-07-05T11:20:49;12.68;;;6.20;;
71298;SDS011;59083;47.974;21.722;2022-07-05T11:23:51;8.02;;;4.93;;
71298;SDS011;59083;47.974;21.722;2022-07-05T11:27:25;10.52;;;4.90;;
71298;SDS011;59083;47.974;21.722;2022-07-05T11:30:27;8.57;;;4.90;;
71298;SDS011;59083;47.974;21.722;2022-07-05T11:33:29;11.25;;;5.87;;
71298;SDS011;59083;47.974;21.722;2022-07-05T11:36:32;8.50;;;5.35;;
71298;SDS011;59083;47.974;21.722;2022-07-05T11:39:33;8.35;;;5.20;;
71298;SDS011;59083;47.974;21.722;2022-07-05T11:42:35;9.55;;;4.50;;
71298;SDS011;59083;47.974;21.722;2022-07-05T11:45:54;10.17;;;5.07;;
71298;SDS011;59083;47.974;21.722;2022-07-05T11:48:57;10.05;;;4.72;;
71298;SDS011;59083;47.974;21.722;2022-07-05T11:52:00;7.85;;;4.70;;
71298;SDS011;59083;47.974;21.722;2022-07-05T11:55:04;8.70;;;4.80;;
71298;SDS011;59083;47.974;21.722;2022-07-05T11:58:08;7.70;;;4.35;;
71298;SDS011;59083;47.974;21.722;2022-07-05T12:01:10;10.27;;;4.90;;
71298;SDS011;59083;47.974;21.722;2022-07-05T12:04:11;8.95;;;4.85;;
71298;SDS011;59083;47.974;21.722;2022-07-05T12:07:12;9.82;;;4.93;;
71298;SDS011;59083;47.974;21.722;2022-07-05T12:10:27;10.18;;;4.60;;
71298;SDS011;59083;47.974;21.722;2022-07-05T12:13:48;13.43;;;5.65;;
71298;SDS011;59083;47.974;21.722;2022-07-05T12:17:10;8.57;;;4.80;;
71298;SDS011;59083;47.974;21.722;2022-07-05T12:20:22;8.82;;;4.95;;
71298;SDS011;59083;47.974;21.722;2022-07-05T12:23:28;9.63;;;4.80;;
71298;SDS011;59083;47.974;21.722;2022-07-05T12:26:29;13.55;;;5.45;;
71298;SDS011;59083;47.974;21.722;2022-07-05T12:29:30;12.00;;;5.28;;
71298;SDS011;59083;47.974;21.722;2022-07-05T12:32:32;7.13;;;4.30;;
71298;SDS011;59083;47.974;21.722;2022-07-05T12:38:39;7.95;;;3.97;;
71298;SDS011;59083;47.974;21.722;2022-07-05T12:41:42;8.32;;;4.00;;
71298;SDS011;59083;47.974;21.722;2022-07-05T12:44:44;14.13;;;4.60;;
71298;SDS011;59083;47.974;21.722;2022-07-05T12:47:52;9.27;;;3.93;;
71298;SDS011;59083;47.974;21.722;2022-07-05T12:50:57;8.40;;;3.67;;
71298;SDS011;59083;47.974;21.722;2022-07-05T12:53:59;11.63;;;3.80;;
71298;SDS011;59083;47.974;21.722;2022-07-05T12:57:19;8.90;;;3.70;;
71298;SDS011;59083;47.974;21.722;2022-07-05T13:00:59;12.68;;;4.30;;
71298;SDS011;59083;47.974;21.722;2022-07-05T13:07:28;8.50;;;3.72;;
71298;SDS011;59083;47.974;21.722;2022-07-05T13:10:29;5.93;;;3.47;;
71298;SDS011;59083;47.974;21.722;2022-07-05T13:13:32;9.65;;;3.87;;
71298;SDS011;59083;47.974;21.722;2022-07-05T13:16:33;7.40;;;4.10;;
71298;SDS011;59083;47.974;21.722;2022-07-05T13:19:35;7.97;;;3.80;;
71298;SDS011;59083;47.974;21.722;2022-07-05T13:22:37;8.95;;;3.65;;
71298;SDS011;59083;47.974;21.722;2022-07-05T13:25:38;7.50;;;3.70;;
71298;SDS011;59083;47.974;21.722;2022-07-05T13:28:39;8.80;;;3.90;;
71298;SDS011;59083;47.974;21.722;2022-07-05T13:31:41;11.20;;;4.05;;
71298;SDS011;59083;47.974;21.722;2022-07-05T13:34:45;6.47;;;3.23;;
71298;SDS011;59083;47.974;21.722;2022-07-05T13:37:47;10.45;;;3.85;;
71298;SDS011;59083;47.974;21.722;2022-07-05T13:40:48;7.57;;;3.50;;
71298;SDS011;59083;47.974;21.722;2022-07-05T13:43:49;6.50;;;3.50;;
71298;SDS011;59083;47.974;21.722;2022-07-05T13:46:50;6.60;;;3.70;;
71298;SDS011;59083;47.974;21.722;2022-07-05T13:49:52;7.73;;;3.60;;
71298;SDS011;59083;47.974;21.722;2022-07-05T13:53:13;6.80;;;3.70;;
71298;SDS011;59083;47.974;21.722;2022-07-05T13:56:14;8.05;;;4.22;;
71298;SDS011;59083;47.974;21.722;2022-07-05T13:59:15;10.95;;;6.95;;
71298;SDS011;59083;47.974;21.722;2022-07-05T14:02:17;10.43;;;4.37;;
71298;SDS011;59083;47.974;21.722;2022-07-05T14:05:18;7.00;;;3.97;;
71298;SDS011;59083;47.974;21.722;2022-07-05T14:08:21;7.22;;;3.67;;
71298;SDS011;59083;47.974;21.722;2022-07-05T14:11:23;8.23;;;3.50;;
71298;SDS011;59083;47.974;21.722;2022-07-05T14:14:26;7.40;;;3.60;;
71298;SDS011;59083;47.974;21.722;2022-07-05T14:17:28;5.78;;;3.33;;
71298;SDS011;59083;47.974;21.722;2022-07-05T14:20:29;8.23;;;3.63;;
71298;SDS011;59083;47.974;21.722;2022-07-05T14:23:30;8.15;;;3.17;;
71298;SDS011;59083;47.974;21.722;2022-07-05T14:26:32;9.50;;;2.90;;
71298;SDS011;59083;47.974;21.722;2022-07-05T14:29:34;9.00;;;2.70;;
71298;SDS011;59083;47.974;21.722;2022-07-05T14:32:36;6.55;;;2.80;;
71298;SDS011;59083;47.974;21.722;2022-07-05T14:35:38;8.43;;;2.90;;
71298;SDS011;59083;47.974;21.722;2022-07-05T14:38:40;10.57;;;4.03;;
71298;SDS011;59083;47.974;21.722;2022-07-05T14:41:41;8.88;;;4.70;;
71298;SDS011;59083;47.974;21.722;2022-07-05T14:44:44;6.95;;;4.50;;
71298;SDS011;59083;47.974;21.722;2022-07-05T14:47:45;8.73;;;5.03;;
71298;SDS011;59083;47.974;21.722;2022-07-05T14:50:47;11.73;;;5.43;;
71298;SDS011;59083;47.974;21.722;2022-07-05T14:53:50;10.73;;;5.82;;
71298;SDS011;59083;47.974;21.722;2022-07-05T14:56:51;11.80;;;6.60;;
71298;SDS011;59083;47.974;21.722;2022-07-05T14:59:53;12.57;;;6.93;;
71298;SDS011;59083;47.974;21.722;2022-07-05T15:02:54;12.15;;;6.97;;
71298;SDS011;59083;47.974;21.722;2022-07-05T15:05:55;10.13;;;6.97;;
71298;SDS011;59083;47.974;21.722;2022-07-05T15:08:56;12.10;;;6.95;;
71298;SDS011;59083;47.974;21.722;2022-07-05T15:11:58;12.10;;;7.43;;
71298;SDS011;59083;47.974;21.722;2022-07-05T15:14:59;18.30;;;7.37;;
71298;SDS011;59083;47.974;21.722;2022-07-05T15:18:00;11.45;;;6.78;;
71298;SDS011;59083;47.974;21.722;2022-07-05T15:21:02;12.70;;;6.37;;
71298;SDS011;59083;47.974;21.722;2022-07-05T15:24:05;12.93;;;6.72;;
71298;SDS011;59083;47.974;21.722;2022-07-05T15:27:06;11.05;;;7.15;;
71298;SDS011;59083;47.974;21.722;2022-07-05T15:30:11;14.20;;;7.80;;
71298;SDS011;59083;47.974;21.722;2022-07-05T15:33:15;12.13;;;7.30;;
71298;SDS011;59083;47.974;21.722;2022-07-05T15:36:16;15.07;;;7.13;;
71298;SDS011;59083;47.974;21.722;2022-07-05T15:39:17;12.13;;;7.43;;
71298;SDS011;59083;47.974;21.722;2022-07-05T15:42:19;10.32;;;7.32;;
71298;SDS011;59083;47.974;21.722;2022-07-05T15:45:20;11.23;;;6.72;;
71298;SDS011;59083;47.974;21.722;2022-07-05T15:48:22;9.98;;;6.60;;
71298;SDS011;59083;47.974;21.722;2022-07-05T15:51:23;13.67;;;7.07;;
71298;SDS011;59083;47.974;21.722;2022-07-05T15:54:25;11.57;;;7.07;;
71298;SDS011;59083;47.974;21.722;2022-07-05T15:57:26;17.90;;;6.93;;
71298;SDS011;59083;47.974;21.722;2022-07-05T16:00:29;22.77;;;7.15;;
71298;SDS011;59083;47.974;21.722;2022-07-05T16:03:31;19.90;;;7.53;;
71298;SDS011;59083;47.974;21.722;2022-07-05T16:06:38;17.50;;;6.77;;
71298;SDS011;59083;47.974;21.722;2022-07-05T16:09:39;22.85;;;6.70;;
71298;SDS011;59083;47.974;21.722;2022-07-05T16:12:40;19.98;;;6.53;;
71298;SDS011;59083;47.974;21.722;2022-07-05T16:15:42;18.20;;;6.53;;
71298;SDS011;59083;47.974;21.722;2022-07-05T16:19:02;23.08;;;6.57;;
71298;SDS011;59083;47.974;21.722;2022-07-05T16:22:04;13.43;;;6.43;;
71298;SDS011;59083;47.974;21.722;2022-07-05T16:25:05;16.08;;;6.90;;
71298;SDS011;59083;47.974;21.722;2022-07-05T16:28:07;12.70;;;5.82;;
71298;SDS011;59083;47.974;21.722;2022-07-05T16:31:09;12.40;;;6.40;;
71298;SDS011;59083;47.974;21.722;2022-07-05T16:34:12;10.52;;;6.35;;
71298;SDS011;59083;47.974;21.722;2022-07-05T16:37:13;13.03;;;6.50;;
71298;SDS011;59083;47.974;21.722;2022-07-05T16:40:15;11.90;;;6.12;;
71298;SDS011;59083;47.974;21.722;2022-07-05T16:43:16;15.48;;;6.00;;
71298;SDS011;59083;47.974;21.722;2022-07-05T16:46:18;13.50;;;5.95;;
71298;SDS011;59083;47.974;21.722;2022-07-05T16:49:19;13.02;;;7.25;;
71298;SDS011;59083;47.974;21.722;2022-07-05T16:52:21;12.70;;;6.33;;
71298;SDS011;59083;47.974;21.722;2022-07-05T16:55:22;11.52;;;6.22;;
71298;SDS011;59083;47.974;21.722;2022-07-05T16:58:23;12.45;;;7.30;;
71298;SDS011;59083;47.974;21.722;2022-07-05T17:01:24;16.52;;;7.60;;
71298;SDS011;59083;47.974;21.722;2022-07-05T17:04:26;11.05;;;6.82;;
71298;SDS011;59083;47.974;21.722;2022-07-05T17:07:27;13.63;;;6.43;;
71298;SDS011;59083;47.974;21.722;2022-07-05T17:10:28;12.55;;;6.78;;
71298;SDS011;59083;47.974;21.722;2022-07-05T17:13:30;9.65;;;6.72;;
71298;SDS011;59083;47.974;21.722;2022-07-05T17:16:31;12.07;;;6.60;;
71298;SDS011;59083;47.974;21.722;2022-07-05T17:19:32;13.02;;;6.68;;
71298;SDS011;59083;47.974;21.722;2022-07-05T17:22:34;12.50;;;6.73;;
71298;SDS011;59083;47.974;21.722;2022-07-05T17:25:36;14.57;;;6.90;;
71298;SDS011;59083;47.974;21.722;2022-07-05T17:28:37;16.02;;;7.72;;
71298;SDS011;59083;47.974;21.722;2022-07-05T17:31:38;14.25;;;8.82;;
71298;SDS011;59083;47.974;21.722;2022-07-05T17:34:40;11.82;;;7.95;;
71298;SDS011;59083;47.974;21.722;2022-07-05T17:37:41;15.47;;;9.33;;
71298;SDS011;59083;47.974;21.722;2022-07-05T17:40:42;15.27;;;8.93;;
71298;SDS011;59083;47.974;21.722;2022-07-05T17:43:44;14.82;;;9.43;;
71298;SDS011;59083;47.974;21.722;2022-07-05T17:46:49;15.35;;;8.48;;
71298;SDS011;59083;47.974;21.722;2022-07-05T17:49:50;13.70;;;7.80;;
71298;SDS011;59083;47.974;21.722;2022-07-05T17:52:52;14.20;;;7.90;;
71298;SDS011;59083;47.974;21.722;2022-07-05T17:55:53;14.02;;;8.38;;
71298;SDS011;59083;47.974;21.722;2022-07-05T17:58:54;14.85;;;8.27;;
71298;SDS011;59083;47.974;21.722;2022-07-05T18:01:56;13.35;;;8.25;;
71298;SDS011;59083;47.974;21.722;2022-07-05T18:04:57;14.35;;;8.20;;